createdAt,value
2023-03-20T00:05:58.296Z,0.90
2023-03-20T00:08:26.148Z,0.83
2023-03-20T00:10:54.466Z,0.70
2023-03-20T00:13:26.229Z,0.67
2023-03-20T00:15:53.542Z,0.90
2023-03-20T00:18:23.117Z,0.70
2023-03-20T00:20:50.845Z,0.70
2023-03-20T00:23:18.091Z,0.77
2023-03-20T00:25:46.485Z,0.67
2023-03-20T00:28:48.025Z,0.70
2023-03-20T00:31:26.703Z,0.63
2023-03-20T00:33:56.060Z,0.80
2023-03-20T00:36:23.804Z,0.70
2023-03-20T00:38:51.386Z,0.80
2023-03-20T00:41:25.398Z,0.90
2023-03-20T00:43:55.558Z,0.70
2023-03-20T00:46:22.589Z,0.80
2023-03-20T00:48:50.123Z,0.80
2023-03-20T00:51:17.650Z,1.70
2023-03-20T00:53:44.435Z,0.80
2023-03-20T00:56:35.574Z,0.80
2023-03-20T00:59:03.894Z,0.80
2023-03-20T01:01:32.065Z,0.70
2023-03-20T01:03:59.973Z,1.00
2023-03-20T01:06:33.679Z,0.77
2023-03-20T01:09:02.463Z,0.80
2023-03-20T01:11:38.482Z,1.00
2023-03-20T01:14:14.024Z,0.87
2023-03-20T01:16:40.798Z,0.80
2023-03-20T01:19:09.017Z,0.90
2023-03-20T01:21:36.633Z,0.83
2023-03-20T01:24:03.396Z,0.90
2023-03-20T01:26:32.415Z,0.90
2023-03-20T01:28:59.152Z,0.73
2023-03-20T01:31:25.826Z,1.43
2023-03-20T01:33:52.551Z,0.80
2023-03-20T01:36:22.731Z,1.17
2023-03-20T01:38:57.533Z,0.90
2023-03-20T01:41:26.538Z,0.90
2023-03-20T01:43:53.639Z,0.90
2023-03-20T01:46:32.030Z,1.00
2023-03-20T01:49:05.818Z,1.10
2023-03-20T01:51:33.094Z,0.90
2023-03-20T01:54:08.361Z,0.90
2023-03-20T01:56:44.530Z,0.90
2023-03-20T01:59:26.014Z,1.17
2023-03-20T02:01:52.854Z,0.97
2023-03-20T02:04:23.976Z,0.90
2023-03-20T02:06:51.071Z,1.07
2023-03-20T02:09:17.798Z,0.80
2023-03-20T02:11:45.595Z,0.87
2023-03-20T02:14:12.792Z,0.90
2023-03-20T02:16:39.596Z,0.90
2023-03-20T02:19:09.372Z,0.80
2023-03-20T02:22:09.554Z,0.80
2023-03-20T02:25:03.310Z,0.83
2023-03-20T02:27:51.778Z,0.73
2023-03-20T02:30:49.413Z,0.80
2023-03-20T02:33:42.215Z,0.80
2023-03-20T02:36:34.663Z,0.80
2023-03-20T02:39:15.444Z,0.97
2023-03-20T02:41:58.144Z,0.70
2023-03-20T02:44:27.635Z,0.67
2023-03-20T02:47:04.333Z,0.80
2023-03-20T02:49:39.039Z,0.70
2023-03-20T02:52:17.042Z,0.60
2023-03-20T02:55:14.880Z,0.73
2023-03-20T02:58:12.528Z,0.90
2023-03-20T03:00:47.460Z,0.80
2023-03-20T03:03:24.820Z,0.70
2023-03-20T03:06:09.104Z,0.60
2023-03-20T03:08:40.576Z,0.50
2023-03-20T03:11:08.723Z,0.70
2023-03-20T03:13:49.617Z,0.60
2023-03-20T03:17:32.118Z,0.60
2023-03-20T03:23:50.591Z,0.83
2023-03-20T03:26:25.612Z,0.80
2023-03-20T03:28:56.871Z,0.60
2023-03-20T03:31:25.206Z,0.67
2023-03-20T03:33:56.905Z,0.50
2023-03-20T03:36:34.421Z,0.60
2023-03-20T03:39:23.768Z,0.50
2023-03-20T03:42:12.170Z,0.50
2023-03-20T03:44:45.802Z,0.60
2023-03-20T03:47:25.771Z,0.60
2023-03-20T03:50:08.421Z,0.60
2023-03-20T03:52:36.644Z,0.50
2023-03-20T03:55:06.579Z,0.50
2023-03-20T03:57:40.439Z,0.60
2023-03-20T04:00:09.419Z,0.40
2023-03-20T04:02:36.285Z,0.43
2023-03-20T04:05:03.881Z,0.60
2023-03-20T04:07:30.874Z,0.50
2023-03-20T04:09:57.567Z,0.70
2023-03-20T04:12:29.767Z,1.40
2023-03-20T04:14:56.450Z,0.50
2023-03-20T04:17:23.131Z,0.50
2023-03-20T04:19:49.841Z,0.57
2023-03-20T04:22:16.553Z,0.50
2023-03-20T04:24:43.216Z,0.60
2023-03-20T04:27:09.861Z,1.47
2023-03-20T04:29:39.163Z,0.40
2023-03-20T04:32:06.459Z,0.83
2023-03-20T04:34:33.152Z,0.50
2023-03-20T04:37:01.279Z,0.53
2023-03-20T04:39:28.426Z,0.50
2023-03-20T04:41:55.122Z,0.50
2023-03-20T04:44:21.786Z,0.50
2023-03-20T04:46:48.533Z,0.60
2023-03-20T04:49:15.700Z,0.50
2023-03-20T04:51:42.435Z,0.60
2023-03-20T04:54:09.136Z,0.60
2023-03-20T04:56:35.808Z,0.40
2023-03-20T04:59:02.718Z,0.50
2023-03-20T05:01:29.534Z,0.50
2023-03-20T05:04:01.081Z,0.50
2023-03-20T05:06:28.560Z,0.50
2023-03-20T05:08:55.295Z,0.40
2023-03-20T05:11:22.413Z,0.63
2023-03-20T05:13:49.061Z,0.50
2023-03-20T05:16:16.131Z,0.70
2023-03-20T05:18:42.859Z,0.70
2023-03-20T05:21:09.581Z,0.60
2023-03-20T05:23:36.622Z,0.50
2023-03-20T05:26:04.096Z,0.73
2023-03-20T05:28:31.062Z,0.50
2023-03-20T05:30:57.816Z,0.53
2023-03-20T05:33:24.638Z,0.40
2023-03-20T05:35:51.493Z,0.60
2023-03-20T05:38:22.609Z,0.60
2023-03-20T05:40:50.327Z,0.50
2023-03-20T05:43:17.032Z,0.70
2023-03-20T05:45:43.830Z,0.67
2023-03-20T05:48:10.772Z,0.60
2023-03-20T05:50:37.473Z,1.13
2023-03-20T05:53:04.185Z,0.50
2023-03-20T05:55:31.031Z,0.50
2023-03-20T05:57:57.739Z,0.50
2023-03-20T06:00:24.660Z,0.40
2023-03-20T06:02:51.433Z,0.57
2023-03-20T06:05:18.175Z,0.60
2023-03-20T06:07:44.839Z,0.40
2023-03-20T06:10:11.781Z,0.50
2023-03-20T06:12:38.963Z,0.60
2023-03-20T06:15:06.483Z,0.50
2023-03-20T06:17:33.227Z,0.43
2023-03-20T06:19:59.937Z,0.57
2023-03-20T06:22:26.625Z,0.47
2023-03-20T06:24:55.977Z,0.47
2023-03-20T06:27:24.208Z,0.57
2023-03-20T06:29:51.057Z,0.43
2023-03-20T06:32:18.437Z,0.50
2023-03-20T06:34:45.199Z,0.50
2023-03-20T06:37:11.885Z,0.50
2023-03-20T06:39:38.583Z,0.60
2023-03-20T06:42:05.389Z,0.63
2023-03-20T06:44:32.044Z,0.70
2023-03-20T06:46:58.894Z,0.40
2023-03-20T06:49:25.584Z,0.60
2023-03-20T06:51:52.751Z,0.50
2023-03-20T06:54:19.469Z,0.57
2023-03-20T06:56:46.660Z,0.50
2023-03-20T06:59:13.992Z,0.50
2023-03-20T07:01:40.842Z,0.53
2023-03-20T07:04:07.643Z,0.50
2023-03-20T07:06:34.825Z,0.67
2023-03-20T07:09:01.707Z,0.50
2023-03-20T07:11:28.726Z,0.93
2023-03-20T07:13:55.930Z,0.50
2023-03-20T07:16:22.684Z,0.50
2023-03-20T07:18:49.378Z,0.50
2023-03-20T07:21:21.000Z,0.60
2023-03-20T07:23:47.951Z,0.90
2023-03-20T07:26:14.842Z,0.60
2023-03-20T07:28:41.520Z,0.67
2023-03-20T07:31:09.580Z,0.60
2023-03-20T07:33:36.269Z,0.70
2023-03-20T07:36:03.184Z,0.70
2023-03-20T07:38:29.924Z,0.60
2023-03-20T07:40:56.582Z,0.60
2023-03-20T07:43:23.301Z,1.17
2023-03-20T07:45:50.056Z,0.67
2023-03-20T07:48:17.249Z,0.70
2023-03-20T07:50:44.050Z,1.00
2023-03-20T07:53:10.692Z,0.70
2023-03-20T07:55:37.705Z,0.63
2023-03-20T07:58:04.779Z,0.93
2023-03-20T08:00:31.673Z,0.70
2023-03-20T08:02:58.855Z,0.70
2023-03-20T08:05:25.939Z,0.70
2023-03-20T08:07:52.940Z,0.60
2023-03-20T08:10:19.798Z,0.70
2023-03-20T08:12:47.395Z,0.73
2023-03-20T08:15:14.595Z,0.60
2023-03-20T08:17:44.335Z,0.80
2023-03-20T08:20:12.277Z,0.80
2023-03-20T08:22:39.162Z,0.90
2023-03-20T08:25:07.426Z,0.90
2023-03-20T08:27:35.315Z,1.03
2023-03-20T08:30:02.130Z,0.60
2023-03-20T08:32:28.801Z,0.80
2023-03-20T08:34:55.753Z,0.77
2023-03-20T08:37:23.285Z,0.77
2023-03-20T08:39:49.950Z,0.70
2023-03-20T08:42:17.105Z,0.93
2023-03-20T08:44:43.901Z,0.70
2023-03-20T08:47:12.206Z,0.70
2023-03-20T08:49:38.968Z,0.80
2023-03-20T08:52:06.045Z,0.70
2023-03-20T08:54:33.857Z,0.80
2023-03-20T08:57:00.723Z,0.70
2023-03-20T08:59:27.558Z,1.00
2023-03-20T09:01:54.252Z,1.00
2023-03-20T09:04:21.144Z,0.70
2023-03-20T09:06:48.038Z,0.87
2023-03-20T09:09:15.975Z,0.80
2023-03-20T09:11:42.760Z,1.00
2023-03-20T09:14:09.773Z,0.70
2023-03-20T09:16:36.506Z,0.90
2023-03-20T09:19:03.669Z,0.90
2023-03-20T09:21:30.493Z,0.70
2023-03-20T09:23:57.137Z,0.80
2023-03-20T09:26:23.819Z,1.00
2023-03-20T09:28:50.608Z,1.10
2023-03-20T09:31:17.340Z,0.90
2023-03-20T09:33:44.032Z,1.00
2023-03-20T09:36:11.886Z,0.90
2023-03-20T09:38:41.785Z,1.10
2023-03-20T09:41:18.671Z,0.70
2023-03-20T09:44:08.004Z,0.80
2023-03-20T09:46:49.629Z,0.80
2023-03-20T09:49:28.944Z,0.60
2023-03-20T09:51:56.214Z,0.80
2023-03-20T09:54:26.034Z,0.87
2023-03-20T09:56:53.176Z,0.90
2023-03-20T09:59:20.670Z,0.70
2023-03-20T10:01:53.240Z,0.73
2023-03-20T10:04:20.350Z,0.60
2023-03-20T10:06:47.167Z,0.70
2023-03-20T10:09:22.608Z,0.87
2023-03-20T10:12:14.665Z,0.70
2023-03-20T10:14:45.120Z,1.07
2023-03-20T10:17:12.007Z,1.00
2023-03-20T10:19:51.799Z,0.70
2023-03-20T10:22:55.358Z,0.83
2023-03-20T10:25:37.847Z,0.70
2023-03-20T10:28:12.335Z,1.30
2023-03-20T10:30:51.032Z,1.10
2023-03-20T10:33:44.611Z,1.00
2023-03-20T10:36:25.428Z,1.20
2023-03-20T10:38:57.853Z,1.20
2023-03-20T10:41:29.251Z,1.13
2023-03-20T10:43:56.286Z,1.17
2023-03-20T10:46:30.682Z,1.20
2023-03-20T10:49:08.937Z,1.03
2023-03-20T10:51:48.535Z,1.23
2023-03-20T10:54:25.221Z,1.30
2023-03-20T10:56:55.889Z,1.60
2023-03-20T10:59:24.304Z,1.60
2023-03-20T11:01:51.224Z,1.37
2023-03-20T11:04:18.114Z,1.63
2023-03-20T11:07:06.543Z,1.90
2023-03-20T11:09:33.225Z,2.30
2023-03-20T11:12:02.373Z,2.20
2023-03-20T11:14:39.592Z,2.37
2023-03-20T11:17:06.843Z,2.33
2023-03-20T11:19:36.081Z,2.20
2023-03-20T11:22:29.454Z,2.20
2023-03-20T11:25:01.389Z,2.27
2023-03-20T11:27:30.436Z,2.40
2023-03-20T11:29:57.941Z,2.43
2023-03-20T11:32:34.051Z,3.43
2023-03-20T11:35:14.998Z,2.50
2023-03-20T11:37:47.727Z,2.70
2023-03-20T11:40:30.476Z,2.67
2023-03-20T11:43:09.384Z,2.87
2023-03-20T11:45:39.092Z,2.73
2023-03-20T11:48:07.239Z,2.90
2023-03-20T11:50:36.601Z,3.20
2023-03-20T11:53:17.362Z,4.10
2023-03-20T11:55:47.138Z,3.00
2023-03-20T11:58:16.562Z,2.97
2023-03-20T12:00:43.348Z,3.10
2023-03-20T12:03:47.570Z,2.70
2023-03-20T12:06:20.408Z,2.73
2023-03-20T12:09:22.748Z,2.67
2023-03-20T12:12:13.817Z,2.77
2023-03-20T12:14:46.022Z,2.80
2023-03-20T12:17:24.926Z,2.80
2023-03-20T12:19:53.468Z,2.87
2023-03-20T12:22:28.811Z,3.20
2023-03-20T12:25:04.287Z,2.80
2023-03-20T12:27:34.704Z,3.13
2023-03-20T12:30:18.295Z,2.77
2023-03-20T12:32:58.568Z,2.50
2023-03-20T12:35:29.554Z,3.13
2023-03-20T12:37:56.698Z,3.20
2023-03-20T12:40:39.685Z,2.80
2023-03-20T12:43:16.124Z,2.80
2023-03-20T12:45:54.438Z,2.73
2023-03-20T12:48:36.079Z,2.47
2023-03-20T12:51:18.724Z,2.50
2023-03-20T12:53:52.139Z,2.90
2023-03-20T12:56:44.923Z,2.57
2023-03-20T12:59:18.094Z,2.70
2023-03-20T13:01:57.850Z,2.23
2023-03-20T13:04:37.609Z,2.23
2023-03-20T13:07:13.765Z,2.47
2023-03-20T13:09:44.950Z,2.40
2023-03-20T13:12:39.332Z,2.50
2023-03-20T13:15:23.346Z,2.93
2023-03-20T13:17:52.960Z,2.23
2023-03-20T13:20:27.569Z,2.40
2023-03-20T13:23:28.307Z,2.53
2023-03-20T13:26:03.893Z,2.40
2023-03-20T13:28:53.504Z,2.57
2023-03-20T13:31:37.089Z,2.77
2023-03-20T13:34:09.512Z,2.20
2023-03-20T13:37:16.051Z,2.00
2023-03-20T13:40:01.968Z,2.17
2023-03-20T13:42:34.997Z,1.93
2023-03-20T13:45:10.225Z,2.37
2023-03-20T13:47:38.056Z,1.67
2023-03-20T13:50:42.739Z,1.80
2023-03-20T13:53:24.391Z,1.93
2023-03-20T13:56:32.197Z,1.87
2023-03-20T13:59:17.429Z,1.37
2023-03-20T14:01:50.914Z,1.70
2023-03-20T14:04:21.220Z,1.60
2023-03-20T14:06:58.572Z,1.70
2023-03-20T14:09:32.846Z,1.77
2023-03-20T14:12:02.823Z,1.47
2023-03-20T14:14:31.353Z,1.20
2023-03-20T14:17:28.064Z,1.23
2023-03-20T14:19:55.872Z,1.50
2023-03-20T14:22:34.603Z,1.17
2023-03-20T14:25:09.165Z,1.63
2023-03-20T14:27:44.335Z,1.23
2023-03-20T14:30:37.503Z,1.43
2023-03-20T14:33:13.399Z,1.30
2023-03-20T14:35:45.612Z,1.10
2023-03-20T14:38:20.854Z,1.40
2023-03-20T14:41:11.966Z,1.20
2023-03-20T14:43:47.768Z,1.13
2023-03-20T14:46:28.929Z,1.33
2023-03-20T14:48:56.376Z,1.27
2023-03-20T14:51:32.537Z,1.13
2023-03-20T14:54:21.093Z,1.50
2023-03-20T14:56:48.940Z,1.17
2023-03-20T14:59:20.565Z,1.30
2023-03-20T15:01:54.853Z,1.30
2023-03-20T15:04:40.136Z,1.10
2023-03-20T15:07:11.380Z,1.47
2023-03-20T15:09:41.285Z,1.10
2023-03-20T15:12:08.056Z,1.53
2023-03-20T15:14:41.649Z,1.57
2023-03-20T15:17:18.340Z,1.10
2023-03-20T15:19:52.785Z,1.40
2023-03-20T15:22:21.772Z,1.17
2023-03-20T15:24:52.975Z,1.10
2023-03-20T15:27:20.645Z,1.23
2023-03-20T15:29:51.777Z,1.53
2023-03-20T15:32:18.569Z,1.23
2023-03-20T15:34:47.439Z,1.30
2023-03-20T15:37:16.424Z,1.10
2023-03-20T15:39:49.334Z,1.30
2023-03-20T15:42:18.307Z,1.13
2023-03-20T15:44:48.082Z,1.37
2023-03-20T15:47:21.371Z,1.40
2023-03-20T15:50:02.753Z,1.53
2023-03-20T15:52:53.322Z,1.47
2023-03-20T15:55:23.734Z,1.50
2023-03-20T15:57:53.410Z,1.33
2023-03-20T16:00:39.896Z,1.20
2023-03-20T16:03:08.800Z,1.40
2023-03-20T16:05:36.135Z,1.37
2023-03-20T16:08:13.935Z,1.40
2023-03-20T16:10:42.748Z,1.57
2023-03-20T16:13:19.086Z,1.40
2023-03-20T16:15:46.503Z,1.30
2023-03-20T16:18:16.113Z,1.30
2023-03-20T16:20:55.061Z,1.20
2023-03-20T16:23:39.402Z,1.20
2023-03-20T16:26:08.287Z,1.20
2023-03-20T16:28:38.520Z,1.13
2023-03-20T16:31:09.593Z,1.50
2023-03-20T16:33:37.715Z,1.20
2023-03-20T16:36:04.991Z,1.10
2023-03-20T16:38:33.867Z,1.37
2023-03-20T16:41:28.836Z,1.17
2023-03-20T16:43:59.206Z,1.20
2023-03-20T16:46:28.152Z,1.40
2023-03-20T16:49:15.388Z,1.17
2023-03-20T16:51:43.584Z,1.30
2023-03-20T16:54:19.996Z,1.50
2023-03-20T16:56:52.707Z,1.60
2023-03-20T16:59:20.084Z,1.30
2023-03-20T17:01:48.519Z,1.33
2023-03-20T17:04:36.410Z,1.30
2023-03-20T17:07:07.522Z,1.27
2023-03-20T17:09:34.578Z,1.13
2023-03-20T17:12:06.181Z,1.50
2023-03-20T17:14:33.004Z,1.17
2023-03-20T17:17:00.333Z,1.23
2023-03-20T17:19:27.132Z,1.60
2023-03-20T17:21:53.910Z,1.30
2023-03-20T17:24:20.600Z,1.53
2023-03-20T17:26:53.538Z,1.10
2023-03-20T17:29:20.325Z,1.30
2023-03-20T17:31:47.094Z,1.33
2023-03-20T17:34:14.992Z,1.50
2023-03-20T17:36:41.826Z,1.40
2023-03-20T17:39:17.448Z,1.60
2023-03-20T17:41:44.247Z,1.50
2023-03-20T17:44:10.956Z,1.60
2023-03-20T17:46:54.007Z,1.90
2023-03-20T17:49:27.075Z,1.90
2023-03-20T17:51:54.548Z,1.77
2023-03-20T17:54:21.482Z,1.73
2023-03-20T17:56:48.208Z,2.30
2023-03-20T17:59:15.128Z,1.83
2023-03-20T18:01:42.659Z,2.30
2023-03-20T18:04:09.418Z,2.43
2023-03-20T18:06:36.973Z,2.30
2023-03-20T18:09:04.863Z,2.20
2023-03-20T18:11:31.919Z,2.10
2023-03-20T18:13:59.786Z,1.90
2023-03-20T18:16:27.172Z,2.00
2023-03-20T18:18:54.445Z,1.93
2023-03-20T18:21:21.234Z,2.07
2023-03-20T18:23:48.219Z,2.07
2023-03-20T18:26:22.351Z,1.90
2023-03-20T18:28:50.511Z,2.03
2023-03-20T18:31:19.137Z,1.90
2023-03-20T18:33:47.789Z,2.17
2023-03-20T18:36:17.138Z,2.10
2023-03-20T18:38:43.927Z,1.80
2023-03-20T18:41:11.667Z,2.00
2023-03-20T18:43:39.653Z,2.07
2023-03-20T18:46:06.863Z,1.80
2023-03-20T18:48:33.925Z,1.83
2023-03-20T18:51:01.887Z,1.93
2023-03-20T18:53:29.793Z,1.80
2023-03-20T18:55:56.632Z,2.10
2023-03-20T18:58:28.860Z,1.90
2023-03-20T19:00:58.050Z,1.97
2023-03-20T19:03:24.869Z,1.77
2023-03-20T19:05:57.485Z,1.80
2023-03-20T19:08:24.224Z,1.80
2023-03-20T19:10:52.119Z,1.87
2023-03-20T19:13:20.459Z,1.70
2023-03-20T19:15:47.455Z,1.73
2023-03-20T19:18:21.274Z,1.50
2023-03-20T19:20:49.935Z,1.80
2023-03-20T19:23:19.499Z,1.70
2023-03-20T19:25:48.135Z,1.83
2023-03-20T19:28:28.798Z,1.70
2023-03-20T19:31:01.719Z,1.70
2023-03-20T19:33:28.351Z,1.70
2023-03-20T19:36:02.964Z,1.70
2023-03-20T19:38:38.706Z,1.63
2023-03-20T19:41:05.809Z,1.50
2023-03-20T19:43:32.582Z,1.70
2023-03-20T19:45:59.579Z,1.60
2023-03-20T19:48:46.196Z,1.80
2023-03-20T19:51:18.432Z,1.70
2023-03-20T19:53:45.979Z,1.23
2023-03-20T19:56:14.070Z,1.60
2023-03-20T19:58:41.054Z,1.47
2023-03-20T20:01:15.032Z,1.77
2023-03-20T20:03:42.458Z,1.80
2023-03-20T20:06:09.812Z,1.67
2023-03-20T20:08:49.112Z,1.60
2023-03-20T20:11:17.827Z,1.60
2023-03-20T20:14:05.228Z,1.60
2023-03-20T20:16:33.938Z,1.37
2023-03-20T20:19:00.811Z,1.63
2023-03-20T20:24:16.062Z,1.43
2023-03-20T20:26:53.389Z,1.43
2023-03-20T20:29:20.916Z,1.70
2023-03-20T20:31:47.931Z,1.50
2023-03-20T20:35:14.866Z,1.73
2023-03-20T20:39:48.723Z,1.80
2023-03-20T20:42:17.073Z,1.70
2023-03-20T20:44:44.230Z,1.60
2023-03-20T20:47:12.200Z,1.70
2023-03-20T20:49:38.968Z,1.53
2023-03-20T20:52:06.366Z,1.63
2023-03-20T20:54:34.107Z,1.60
2023-03-20T20:57:01.225Z,1.57
2023-03-20T20:59:28.184Z,1.23
2023-03-20T21:01:54.982Z,1.43
2023-03-20T21:04:21.765Z,1.40
2023-03-20T21:07:08.797Z,1.60
2023-03-20T21:09:35.257Z,1.70
2023-03-20T21:12:02.813Z,1.67
2023-03-20T21:14:29.664Z,1.40
2023-03-20T21:17:00.764Z,1.50
2023-03-20T21:19:32.698Z,1.63
2023-03-20T21:21:59.367Z,1.40
2023-03-20T21:24:32.744Z,1.67
2023-03-20T21:27:01.198Z,1.80
2023-03-20T21:29:28.017Z,1.80
2023-03-20T21:31:54.757Z,1.70
2023-03-20T21:34:21.874Z,1.60
2023-03-20T21:36:49.336Z,1.63
2023-03-20T21:39:17.200Z,1.63
2023-03-20T21:41:44.299Z,1.37
2023-03-20T21:44:17.081Z,1.60
2023-03-20T21:50:30.825Z,1.50
2023-03-20T21:53:16.866Z,1.73
2023-03-20T21:58:44.315Z,1.53
2023-03-20T22:01:29.469Z,1.70
2023-03-20T22:04:06.305Z,1.67
2023-03-20T22:17:59.597Z,1.83
2023-03-20T22:38:00.489Z,1.90
2023-03-20T22:43:02.324Z,2.00
2023-03-20T22:45:42.106Z,1.80
2023-03-20T22:48:11.655Z,2.40
2023-03-20T22:50:39.825Z,3.00
2023-03-20T22:53:06.499Z,2.03
2023-03-20T22:55:33.215Z,2.17
2023-03-20T22:58:06.794Z,2.03
2023-03-20T23:00:35.720Z,2.20
2023-03-20T23:03:17.189Z,2.13
2023-03-20T23:05:50.017Z,2.00
2023-03-20T23:08:17.128Z,2.73
2023-03-20T23:10:48.729Z,2.03
2023-03-20T23:13:16.397Z,2.03
2023-03-20T23:15:46.588Z,2.20
2023-03-20T23:18:13.823Z,2.10
2023-03-20T23:20:40.934Z,2.30
2023-03-20T23:23:07.692Z,2.63
2023-03-20T23:25:40.782Z,2.37
2023-03-20T23:28:09.141Z,2.30
2023-03-20T23:31:07.421Z,2.40
2023-03-20T23:33:23.265Z,2.47
2023-03-20T23:36:01.223Z,2.10
2023-03-20T23:38:36.120Z,2.17
2023-03-20T23:41:02.874Z,2.40
2023-03-20T23:43:29.827Z,2.10
2023-03-20T23:45:56.581Z,2.40
2023-03-20T23:48:23.686Z,2.17
2023-03-20T23:50:53.349Z,2.10
2023-03-20T23:53:21.277Z,2.00
2023-03-20T23:55:50.196Z,2.50
2023-03-20T23:58:17.439Z,2.30
